Latest Weather Observations for Dunalley

IDT60801

Issued at 10:05 am EST Tuesday 23 September 2014 (issued every 30 minutes, with the page automatically refreshed every 10 minutes)

About weather observations | Map of weather stations | Latest weather observations for TAS | Other Formats
Station Details ID: 094254 Name: DUNALLEY (STROUD POINT) Lat: -42.90 Lon: 147.79 Height: 12.43 m
Data from the previous 72 hours. | See also: Recent months at Dunalley
Date/Time
EST
Temp
°C
App
Temp
°C
Dew
Point
Rel
Hum
%
Delta-T
°C
Wind Press
QNH
hPa
Press
MSL
hPa
Rain
since 9 am
mm
Dir
 
Spd
km/h
Gust
km/h
Spd
kts
Gust
kts
23/10:00am 18.0 13.3 1.1 32 7.5 WNW 15 22 8 12 1023.4 1023.5 0.0
23/09:30am 17.0 13.1 1.0 34 7.0 NW 11 19 6 10 1023.7 1023.8 0.0
23/09:00am 15.8 11.5 1.2 37 6.3 WNW 13 20 7 11 1023.9 1024.0 0.2
23/08:30am 14.3 10.5 1.9 43 5.4 WNW 11 15 6 8 1023.9 1024.0 0.2
23/08:00am 12.8 10.2 4.0 55 4.0 WNW 7 11 4 6 1023.8 1023.9 0.0
23/07:30am 11.6 9.1 4.6 62 3.2 WNW 7 11 4 6 1023.5 1023.6 0.0
23/07:00am 9.7 8.2 4.9 72 2.1 WNW 2 6 1 3 1023.2 1023.3 0.0
23/06:30am 9.6 6.5 1.5 57 3.4 WNW 7 7 4 4 1023.2 1023.3 0.0
23/06:00am 8.7 7.4 6.0 83 1.2 WNW 2 6 1 3 1023.1 1023.2 0.0
23/05:30am 8.7 6.8 6.7 87 0.9 WNW 6 7 3 4 1022.7 1022.8 0.0
23/05:00am 8.6 7.8 6.7 88 0.9 CALM 0 4 0 2 1022.9 1023.0 0.0
23/04:30am 9.4 7.7 7.7 89 0.8 WNW 6 9 3 5 1023.0 1023.1 0.0
23/04:00am 9.3 9.0 8.5 95 0.4 CALM 0 0 0 0 1023.2 1023.3 0.0
23/03:30am 8.7 8.1 7.5 92 0.6 CALM 0 0 0 0 1023.1 1023.2 0.0
23/03:00am 9.4 8.7 8.5 94 0.4 WNW 2 4 1 2 1023.3 1023.4 0.0
23/02:30am 9.4 8.6 8.3 93 0.5 WNW 2 4 1 2 1023.4 1023.5 0.0
23/02:00am 9.4 8.6 8.3 93 0.5 WNW 2 4 1 2 1023.8 1023.9 0.0
23/01:30am 10.0 9.2 9.5 97 0.2 WNW 4 7 2 4 1024.1 1024.2 0.0
23/01:00am 10.2 9.4 9.7 97 0.2 WNW 4 6 2 3 1024.2 1024.3 0.0
23/12:30am 9.4 7.7 8.5 94 0.4 WNW 7 9 4 5 1024.2 1024.3 0.0
23/12:00am 8.8 6.9 7.7 93 0.5 WNW 7 9 4 5 1024.0 1024.1 0.0
 
Date/Time
EST
Temp
°C
App
Temp
°C
Dew
Point
Rel
Hum
%
Delta-T
°C
Wind Press
QNH
hPa
Press
MSL
hPa
Rain
since 9 am
mm
Dir
 
Spd
km/h
Gust
km/h
Spd
kts
Gust
kts
22/11:30pm 10.3 9.0 9.1 92 0.6 WNW 6 7 3 4 1023.9 1024.0 0.0
22/11:00pm 10.9 10.1 9.5 91 0.7 WNW 4 7 2 4 1023.8 1023.9 0.0
22/10:30pm 11.2 9.2 10.0 92 0.6 W 11 13 6 7 1023.6 1023.7 0.0
22/10:00pm 10.9 8.3 9.5 91 0.7 W 13 15 7 8 1023.6 1023.7 0.0
22/09:30pm 11.1 9.4 9.7 91 0.7 W 9 15 5 8 1023.3 1023.4 0.0
22/09:00pm 11.6 10.4 10.3 92 0.7 W 7 13 4 7 1023.3 1023.4 0.0
22/08:30pm 11.9 8.9 10.5 91 0.7 W 17 20 9 11 1023.1 1023.2 0.0
22/08:00pm 11.9 11.4 9.3 84 1.3 W 2 6 1 3 1022.8 1022.9 0.0
22/07:30pm 12.5 10.0 10.9 90 0.8 NNE 15 19 8 10 1022.6 1022.7 0.0
22/07:00pm 15.7 14.1 8.2 61 3.8 ENE 6 7 3 4 1022.1 1022.2 0.0
22/06:30pm 14.4 13.0 9.0 70 2.7 ENE 6 7 3 4 1021.9 1022.0 0.0
22/06:00pm 14.9 14.0 9.1 68 3.0 ENE 4 9 2 5 1021.8 1021.9 0.0
22/05:30pm 16.4 14.9 8.6 60 4.0 ENE 6 9 3 5 1021.6 1021.7 0.0
22/05:00pm 17.4 15.0 8.8 57 4.4 ENE 11 11 6 6 1021.2 1021.3 0.0
22/04:30pm 17.9 15.7 9.5 58 4.4 ENE 11 15 6 8 1021.1 1021.2 0.0
22/04:00pm 18.0 14.2 9.1 56 4.6 NE 19 20 10 11 1021.1 1021.2 0.0
22/03:30pm 18.5 15.2 9.6 56 4.7 NE 17 20 9 11 1021.3 1021.4 0.0
22/03:00pm 18.5 15.1 9.3 55 4.8 NE 17 22 9 12 1021.6 1021.7 0.0
22/02:30pm 18.6 15.5 10.2 58 4.5 NE 17 22 9 12 1021.8 1021.9 0.0
22/02:00pm 18.5 15.0 10.1 58 4.5 ENE 19 22 10 12 1022.3 1022.4 0.0
22/01:30pm 18.4 14.9 10.8 61 4.1 NE 20 22 11 12 1022.6 1022.7 0.0
22/01:00pm 17.4 13.2 9.8 61 4.0 NE 22 28 12 15 1023.1 1023.2 0.0
22/12:30pm 17.2 12.9 9.4 60 4.1 ENE 22 28 12 15 1023.5 1023.6 0.0
22/12:00pm 17.7 13.0 9.3 58 4.4 NE 24 28 13 15 1023.9 1024.0 0.0
22/11:30am 17.1 12.8 9.5 61 4.0 NE 22 28 12 15 1024.4 1024.5 0.0
22/11:00am 16.5 11.6 10.1 66 3.4 ENE 26 30 14 16 1024.6 1024.7 0.0
22/10:30am 15.9 11.9 10.4 70 2.9 NE 22 26 12 14 1025.0 1025.1 0.0
22/10:00am 15.4 11.8 10.0 70 2.8 NE 19 24 10 13 1025.6 1025.7 0.0
22/09:30am 14.6 11.5 10.2 75 2.3 ENE 17 22 9 12 1025.9 1026.0 0.0
22/09:00am 13.6 11.2 10.0 79 1.8 W 13 17 7 9 1026.2 1026.3 0.0
22/08:30am 11.7 11.0 9.9 89 0.9 W 4 4 2 2 1026.6 1026.7 0.0
22/08:00am 11.7 11.0 9.9 89 0.9 W 4 7 2 4 1026.7 1026.8 0.0
22/07:30am 10.6 9.2 9.4 92 0.6 W 7 9 4 5 1026.8 1026.9 0.0
22/07:00am 8.5 6.2 7.6 94 0.4 W 9 11 5 6 1026.8 1026.9 0.0
22/06:30am 7.1 5.2 6.7 97 0.2 W 6 7 3 4 1026.7 1026.8 0.0
22/06:00am 7.3 5.4 6.9 97 0.2 W 6 7 3 4 1026.6 1026.7 0.0
22/05:30am 7.0 4.4 6.3 95 0.3 W 9 9 5 5 1026.3 1026.4 0.0
22/05:00am 7.0 4.6 5.3 89 0.7 W 7 9 4 5 1026.2 1026.3 0.0
22/04:30am 6.7 5.6 5.3 91 0.6 CALM 0 0 0 0 1026.2 1026.3 0.0
22/04:00am 8.6 7.9 7.1 90 0.7 CALM 0 0 0 0 1026.3 1026.4 0.0
22/03:30am 8.6 8.0 7.4 92 0.6 CALM 0 0 0 0 1026.3 1026.4 0.0
22/03:00am 7.9 7.1 6.4 90 0.7 CALM 0 0 0 0 1026.4 1026.5 0.0
22/02:30am 7.5 5.4 6.6 94 0.4 W 7 9 4 5 1026.4 1026.5 0.0
22/02:00am 7.9 5.8 6.7 92 0.5 W 7 7 4 4 1026.4 1026.5 0.0
22/01:30am 7.7 5.1 6.3 91 0.6 W 9 11 5 6 1026.6 1026.7 0.0
22/01:00am 8.9 7.1 7.2 89 0.8 W 6 7 3 4 1026.9 1027.0 0.0
22/12:30am 8.3 6.4 6.6 89 0.8 W 6 9 3 5 1027.0 1027.1 0.0
22/12:00am 9.6 8.3 6.1 79 1.6 W 2 9 1 5 1026.9 1027.0 0.0
 
Date/Time
EST
Temp
°C
App
Temp
°C
Dew
Point
Rel
Hum
%
Delta-T
°C
Wind Press
QNH
hPa
Press
MSL
hPa
Rain
since 9 am
mm
Dir
 
Spd
km/h
Gust
km/h
Spd
kts
Gust
kts
21/11:30pm 9.9 9.0 7.7 86 1.1 W 2 6 1 3 1027.1 1027.2 0.0
21/11:00pm 9.8 8.3 8.4 91 0.7 W 6 7 3 4 1027.3 1027.4 0.0
21/10:30pm 10.1 8.8 7.7 85 1.2 W 4 6 2 3 1027.5 1027.6 0.0
21/10:00pm 10.4 9.2 6.4 76 1.9 W 2 4 1 2 1027.6 1027.7 0.0
21/09:30pm 10.8 10.1 6.9 77 1.8 CALM 0 0 0 0 1027.5 1027.6 0.0
21/09:00pm 11.9 11.1 8.0 77 1.9 W 2 2 1 1 1027.6 1027.7 0.0
21/08:30pm 12.0 11.2 8.1 77 1.9 W 2 6 1 3 1027.4 1027.5 0.0
21/08:00pm 12.2 11.2 8.7 79 1.7 W 4 4 2 2 1027.3 1027.4 0.0
21/07:30pm 12.2 11.6 9.0 81 1.6 W 2 6 1 3 1027.2 1027.3 0.0
21/07:00pm 12.9 10.7 9.2 78 1.9 W 11 15 6 8 1026.8 1026.9 0.0
21/06:30pm 13.3 10.8 6.6 64 3.2 W 9 11 5 6 1026.4 1026.5 0.0
21/06:00pm 14.8 12.0 6.9 59 3.8 W 11 20 6 11 1026.0 1026.1 0.0
21/05:30pm 14.2 10.9 9.6 74 2.4 SW 17 22 9 12 1025.5 1025.6 0.0
21/05:00pm 15.4 11.4 8.9 65 3.3 SW 20 24 11 13 1025.3 1025.4 0.0
21/04:30pm 15.3 11.5 9.2 67 3.1 WSW 19 22 10 12 1025.2 1025.3 0.0
21/04:00pm 16.4 12.6 9.1 62 3.7 WSW 19 20 10 11 1025.1 1025.2 0.0
21/03:30pm 16.7 13.1 8.4 58 4.2 WSW 17 19 9 10 1025.1 1025.2 0.0
21/03:00pm 16.2 12.8 9.2 63 3.6 WSW 17 20 9 11 1025.1 1025.2 0.0
21/02:30pm 16.8 11.8 8.2 57 4.4 SW 24 26 13 14 1025.1 1025.2 0.0
21/02:00pm 16.3 12.9 9.3 63 3.6 WSW 17 20 9 11 1025.1 1025.2 0.0
21/01:30pm 17.0 13.0 8.4 57 4.4 WSW 19 20 10 11 1025.2 1025.3 0.0
21/01:00pm 16.2 12.1 7.9 58 4.2 WSW 19 20 10 11 1025.3 1025.4 0.0
21/12:30pm 16.3 12.3 8.3 59 4.1 WSW 19 20 10 11 1025.4 1025.5 0.0
21/12:00pm 15.9 11.4 8.4 61 3.8 WSW 22 26 12 14 1025.6 1025.7 0.0
21/11:30am 15.3 11.9 9.0 66 3.2 WSW 17 20 9 11 1025.7 1025.8 0.0
21/11:00am 15.7 11.0 7.7 59 4.0 WSW 22 26 12 14 1025.9 1026.0 0.0
21/10:30am 15.5 10.5 6.5 55 4.4 W 22 28 12 15 1026.1 1026.2 0.0
21/10:00am 14.8 11.0 7.6 62 3.5 W 17 22 9 12 1026.1 1026.2 0.0
21/09:30am 14.2 10.0 8.2 67 3.0 W 20 26 11 14 1026.3 1026.4 0.0
21/09:00am 12.9 8.2 7.8 71 2.5 W 22 28 12 15 1026.1 1026.2 0.0
21/08:30am 12.6 7.8 7.5 71 2.5 W 22 30 12 16 1025.9 1026.0 0.0
21/08:00am 12.3 7.0 6.8 69 2.6 W 24 33 13 18 1025.7 1025.8 0.0
21/07:30am 11.5 7.8 6.2 70 2.5 WNW 15 20 8 11 1025.4 1025.5 0.0
21/07:00am 11.3 6.8 6.0 70 2.5 WNW 19 26 10 14 1025.0 1025.1 0.0
21/06:30am 11.2 7.0 5.9 70 2.5 WNW 17 22 9 12 1024.8 1024.9 0.0
21/06:00am 11.4 6.2 5.5 67 2.7 W 22 32 12 17 1024.3 1024.4 0.0
21/05:30am 11.0 5.8 5.3 68 2.6 WNW 22 30 12 16 1024.2 1024.3 0.0
21/05:00am 11.0 5.3 5.1 67 2.7 WNW 24 33 13 18 1024.1 1024.2 0.0
21/04:30am 10.9 5.6 4.8 66 2.8 WNW 22 32 12 17 1024.1 1024.2 0.0
21/04:00am 11.0 5.2 4.5 64 2.9 WNW 24 32 13 17 1024.2 1024.3 0.0
21/03:30am 10.9 4.3 4.1 63 3.0 WNW 28 41 15 22 1024.0 1024.1 0.0
21/03:00am 11.0 4.0 4.2 63 3.0 WNW 30 39 16 21 1024.0 1024.1 0.0
21/02:30am 10.1 5.1 4.5 68 2.5 WNW 20 26 11 14 1024.4 1024.5 0.0
21/02:00am 10.1 5.2 4.3 67 2.6 WNW 19 26 10 14 1024.7 1024.8 0.0
21/01:30am 9.7 5.2 4.3 69 2.4 WNW 17 24 9 13 1025.2 1025.3 0.0
21/01:00am 9.9 5.0 4.3 68 2.5 WNW 19 26 10 14 1025.2 1025.3 0.0
21/12:30am 9.8 5.4 4.8 71 2.2 WNW 17 24 9 13 1025.1 1025.2 0.0
21/12:00am 9.8 5.7 4.6 70 2.3 WNW 15 26 8 14 1025.2 1025.3 0.0
 
Date/Time
EST
Temp
°C
App
Temp
°C
Dew
Point
Rel
Hum
%
Delta-T
°C
Wind Press
QNH
hPa
Press
MSL
hPa
Rain
since 9 am
mm
Dir
 
Spd
km/h
Gust
km/h
Spd
kts
Gust
kts
20/11:30pm 10.5 5.7 4.4 66 2.7 W 19 26 10 14 1025.2 1025.3 0.0
20/11:00pm 11.4 3.9 6.3 71 2.4 WSW 35 43 19 23 1025.4 1025.5 0.0
20/10:30pm 11.8 3.1 5.9 67 2.8 WSW 41 54 22 29 1025.4 1025.5 0.0
20/10:26pm 11.9 3.9 5.5 65 3.0 WSW 37 54 20 29 1025.4 1025.5 0.0
20/10:00pm 11.7 5.2 6.6 71 2.4 WSW 30 33 16 18 1025.6 1025.7 0.0
20/09:30pm 11.5 5.4 6.6 72 2.3 WSW 28 33 15 18 1025.5 1025.6 0.0
20/09:00pm 11.5 4.8 5.8 68 2.6 W 30 41 16 22 1025.6 1025.7 0.0
20/08:30pm 11.5 4.9 6.2 70 2.5 WSW 30 33 16 18 1025.2 1025.3 0.0
20/08:00pm 11.7 4.5 6.0 68 2.7 WSW 33 39 18 21 1025.3 1025.4 0.0
20/07:30pm 12.0 4.1 6.1 67 2.8 WSW 37 48 20 26 1024.7 1024.8 0.0
20/07:00pm 12.0 4.6 6.7 70 2.5 WSW 35 44 19 24 1024.5 1024.6 0.0
20/06:30pm 12.1 4.0 7.0 71 2.4 WSW 39 46 21 25 1023.8 1023.9 0.0
20/06:00pm 12.4 5.5 6.5 67 2.8 WSW 32 37 17 20 1023.2 1023.3 0.0
20/05:30pm 12.8 5.7 6.6 66 3.0 WSW 33 39 18 21 1023.4 1023.5 0.0
20/05:00pm 13.0 6.2 7.7 70 2.6 SW 33 43 18 23 1023.4 1023.5 0.0
20/04:30pm 13.2 5.8 6.8 65 3.1 WSW 35 41 19 22 1022.8 1022.9 0.0
20/04:00pm 13.6 6.2 6.9 64 3.2 WSW 35 43 19 23 1022.8 1022.9 0.0
20/03:30pm 14.2 7.9 7.5 64 3.3 WSW 30 37 16 20 1022.7 1022.8 0.0
20/03:00pm 14.4 6.7 7.0 61 3.6 SW 37 44 20 24 1022.4 1022.5 0.0
20/02:30pm 14.7 7.0 7.3 61 3.6 SW 37 44 20 24 1022.6 1022.7 0.0
20/02:00pm 14.8 7.6 7.8 63 3.5 SW 35 43 19 23 1022.3 1022.4 0.0
20/01:30pm 14.6 8.6 7.2 61 3.6 SW 28 41 15 22 1022.3 1022.4 0.0
20/01:00pm 14.8 7.5 7.4 61 3.6 SW 35 43 19 23 1022.3 1022.4 0.0
20/12:30pm 14.6 7.4 7.6 63 3.5 WSW 35 41 19 22 1022.4 1022.5 0.0
20/12:00pm 14.5 8.8 6.6 59 3.8 WSW 26 35 14 19 1022.7 1022.8 0.0
20/11:30am 14.3 8.9 7.8 65 3.2 WSW 26 33 14 18 1022.9 1023.0 0.0
20/11:00am 13.8 7.5 7.6 66 3.0 SW 30 37 16 20 1022.9 1023.0 0.0
20/10:30am 13.7 7.6 6.6 62 3.4 WSW 28 37 15 20 1022.8 1022.9 0.0

Other Formats:

Comma delimited format used in spreadsheet applications
http://www.bom.gov.au/fwo/IDT60801/IDT60801.94951.axf

JavaScript Object Notation format (JSON) in row-major order
http://www.bom.gov.au/fwo/IDT60801/IDT60801.94951.json